SDGM weather

Fazenda Mucambo Airport
Baldim, Minas Gerais, Brazil

Public forecast

Using degrees Celsius for public forecast. Weather courtesy of forecast.io.

METAR (pilot weather report)

Closest report is Tancredo Neves International Airport, 20.6 nm (38.1 km) SSW. Retrieved 2019/09/16 03:00 UTC (7 minutes ago):

SBCF 160300Z 10007KT CAVOK 20/13 Q1022

TAF (pilot weather forecast)

Closest forecast is Tancredo Neves International Airport, 20.6 nm (38.1 km) SSW. Retrieved 2019/09/16 00:00 UTC (3 hours ago):

TAF SBCF 152200Z 1600/1624 09007KT CAVOK TN18/1608Z TX29/1618Z BECMG 1611/1613 09012KT RMK PEU